Time;durP1;ratioP1;P1;durP2;ratioP2;P2;SDS_P1;SDS_P2;PMS_P1;PMS_P2;Temp;Humidity;BMP_temperature;BMP_pressure;BME280_temperature;BME280_humidity;BME280_pressure;Samples;Min_cycle;Max_cycle;Signal;HPM_P1;HPM_P2
2023/08/29 00:02:04;;;;;;;2.53;1.50;;;;;;;;;;764862;181;909977;-60
2023/08/29 00:04:30;;;;;;;2.60;1.40;;;;;;;;;;777425;180;918614;-68
2023/08/29 00:06:55;;;;;;;3.83;2.17;;;;;;;;;;770444;178;919339;-60
2023/08/29 00:09:21;;;;;;;4.20;1.77;;;;;;;;;;767662;179;1017824;-69
2023/08/29 00:11:47;;;;;;;4.57;2.00;;;;;;;;;;769139;180;916502;-66
2023/08/29 00:14:13;;;;;;;4.23;1.73;;;;;;;;;;779350;177;817560;-67
2023/08/29 00:16:39;;;;;;;6.43;2.00;;;;;;;;;;774039;180;818527;-68
2023/08/29 00:19:05;;;;;;;4.70;2.60;;;;;;;;;;762732;184;918888;-68
2023/08/29 00:21:31;;;;;;;2.67;1.27;;;;;;;;;;780185;178;821828;-65
2023/08/29 00:23:56;;;;;;;3.53;2.73;;;;;;;;;;770948;178;918929;-68
2023/08/29 00:26:22;;;;;;;5.10;1.40;;;;;;;;;;771885;180;919206;-69
2023/08/29 00:28:49;;;;;;;2.47;1.13;;;;;;;;;;774833;179;919203;-69
2023/08/29 00:31:14;;;;;;;2.60;1.60;;;;;;;;;;773079;179;917073;-62
2023/08/29 00:33:40;;;;;;;2.43;1.33;;;;;;;;;;772541;177;822975;-68
2023/08/29 00:36:06;;;;;;;3.33;1.30;;;;;;;;;;774828;177;920100;-68
2023/08/29 00:38:31;;;;;;;2.67;1.50;;;;;;;;;;771267;181;920132;-68
2023/08/29 00:40:59;;;;;;;3.07;1.30;;;;;;;;;;768546;178;919328;-59
2023/08/29 00:43:23;;;;;;;4.17;1.40;;;;;;;;;;771256;179;816244;-60
2023/08/29 00:45:49;;;;;;;2.35;1.20;;;;;;;;;;775106;181;817236;-68
2023/08/29 00:48:15;;;;;;;2.50;1.40;;;;;;;;;;771774;180;929881;-66
2023/08/29 00:50:41;;;;;;;3.03;1.35;;;;;;;;;;773477;178;916199;-61
2023/08/29 00:53:07;;;;;;;4.50;1.10;;;;;;;;;;775670;177;915664;-67
2023/08/29 00:55:33;;;;;;;3.10;1.20;;;;;;;;;;772484;178;915884;-68
2023/08/29 00:57:59;;;;;;;2.83;1.40;;;;;;;;;;776457;180;918224;-61
2023/08/29 01:00:24;;;;;;;2.43;1.30;;;;;;;;;;771477;182;877722;-61
2023/08/29 01:02:50;;;;;;;2.60;1.47;;;;;;;;;;774340;180;941555;-68
2023/08/29 01:05:16;;;;;;;2.70;1.20;;;;;;;;;;771434;180;938212;-63
2023/08/29 01:07:42;;;;;;;2.30;1.50;;;;;;;;;;772721;179;918395;-64
2023/08/29 01:10:08;;;;;;;2.17;1.10;;;;;;;;;;773646;181;918618;-70
2023/08/29 01:12:35;;;;;;;2.60;1.30;;;;;;;;;;762680;181;919382;-68
2023/08/29 01:15:03;;;;;;;2.67;1.20;;;;;;;;;;768267;180;919610;-68
2023/08/29 01:17:29;;;;;;;3.77;1.20;;;;;;;;;;778444;181;914885;-67
2023/08/29 01:19:55;;;;;;;4.93;1.20;;;;;;;;;;760149;178;944410;-69
2023/08/29 01:22:26;;;;;;;4.17;1.40;;;;;;;;;;774063;181;831399;-63
2023/08/29 01:24:58;;;;;;;3.60;2.70;;;;;;;;;;769083;181;918959;-67
2023/08/29 01:27:25;;;;;;;1.90;1.00;;;;;;;;;;776465;180;816277;-67
2023/08/29 01:29:49;;;;;;;6.78;1.10;;;;;;;;;;774330;178;916047;-63
2023/08/29 01:32:15;;;;;;;4.20;1.33;;;;;;;;;;772276;178;919045;-62
2023/08/29 01:34:44;;;;;;;2.73;1.33;;;;;;;;;;778407;179;924003;-69
2023/08/29 01:37:08;;;;;;;5.30;1.20;;;;;;;;;;768274;181;761775;-69
2023/08/29 01:39:34;;;;;;;2.55;1.15;;;;;;;;;;773647;179;918081;-63
2023/08/29 01:42:00;;;;;;;2.70;1.60;;;;;;;;;;766814;183;817067;-69
2023/08/29 01:44:26;;;;;;;2.73;1.47;;;;;;;;;;774116;181;815008;-61
2023/08/29 01:46:52;;;;;;;5.60;1.00;;;;;;;;;;773484;178;920846;-63
2023/08/29 01:49:18;;;;;;;4.03;1.40;;;;;;;;;;776284;177;918692;-69
2023/08/29 01:51:43;;;;;;;2.20;1.23;;;;;;;;;;782721;180;817437;-68
2023/08/29 01:54:09;;;;;;;2.30;1.10;;;;;;;;;;770828;180;897539;-67
2023/08/29 01:56:35;;;;;;;3.17;1.37;;;;;;;;;;772962;181;919338;-67
2023/08/29 01:59:01;;;;;;;3.30;1.37;;;;;;;;;;768063;181;919098;-67
2023/08/29 02:01:27;;;;;;;2.97;1.10;;;;;;;;;;773562;180;920741;-69
2023/08/29 02:03:53;;;;;;;2.23;1.23;;;;;;;;;;772904;177;917755;-69
2023/08/29 02:06:19;;;;;;;2.87;1.58;;;;;;;;;;761475;183;914505;-61
2023/08/29 02:08:44;;;;;;;3.70;1.47;;;;;;;;;;769754;180;912879;-68
2023/08/29 02:11:10;;;;;;;2.40;1.30;;;;;;;;;;773228;180;916279;-66
2023/08/29 02:13:36;;;;;;;5.37;1.60;;;;;;;;;;768871;181;923380;-68
2023/08/29 02:16:02;;;;;;;2.67;1.53;;;;;;;;;;779247;178;916001;-67
2023/08/29 02:18:28;;;;;;;2.30;1.20;;;;;;;;;;772587;180;919611;-67
2023/08/29 02:20:54;;;;;;;2.70;1.40;;;;;;;;;;769365;180;921699;-61
2023/08/29 02:23:20;;;;;;;5.27;1.60;;;;;;;;;;775212;181;919923;-60
2023/08/29 02:25:45;;;;;;;2.50;1.40;;;;;;;;;;771027;178;919126;-61
2023/08/29 02:28:11;;;;;;;2.20;1.40;;;;;;;;;;771423;178;919594;-60
2023/08/29 02:30:37;;;;;;;2.33;1.30;;;;;;;;;;766374;179;925728;-66
2023/08/29 02:33:03;;;;;;;2.10;1.33;;;;;;;;;;765891;182;916639;-62
2023/08/29 02:35:29;;;;;;;3.37;1.80;;;;;;;;;;762924;181;919322;-61
2023/08/29 02:37:55;;;;;;;2.93;1.90;;;;;;;;;;771209;181;920009;-62
2023/08/29 02:40:20;;;;;;;2.50;1.50;;;;;;;;;;779592;177;812676;-62
2023/08/29 02:42:47;;;;;;;5.57;1.90;;;;;;;;;;767732;180;921425;-62
2023/08/29 02:45:12;;;;;;;3.23;2.10;;;;;;;;;;774388;180;920931;-61
2023/08/29 02:47:38;;;;;;;3.97;2.40;;;;;;;;;;777763;180;918497;-62
2023/08/29 02:50:04;;;;;;;4.07;1.80;;;;;;;;;;768053;179;918870;-62
2023/08/29 02:52:30;;;;;;;3.53;2.40;;;;;;;;;;774992;178;919229;-62
2023/08/29 02:54:56;;;;;;;3.83;3.13;;;;;;;;;;778300;179;816772;-62
2023/08/29 02:57:22;;;;;;;4.73;2.80;;;;;;;;;;770599;181;918326;-62
2023/08/29 02:59:47;;;;;;;3.70;2.77;;;;;;;;;;773538;178;918812;-62
2023/08/29 03:02:13;;;;;;;4.20;2.73;;;;;;;;;;773553;181;919879;-63
2023/08/29 03:04:39;;;;;;;3.27;2.63;;;;;;;;;;778109;181;919164;-67
2023/08/29 03:07:05;;;;;;;6.53;3.07;;;;;;;;;;769138;181;918240;-63
2023/08/29 03:09:31;;;;;;;4.82;3.25;;;;;;;;;;770170;181;919120;-69
2023/08/29 03:11:57;;;;;;;5.70;4.03;;;;;;;;;;779319;181;919420;-67
2023/08/29 03:14:23;;;;;;;6.30;4.00;;;;;;;;;;774930;181;918682;-72
2023/08/29 03:16:48;;;;;;;3.70;3.10;;;;;;;;;;773814;179;821964;-62
2023/08/29 03:19:15;;;;;;;4.70;3.57;;;;;;;;;;780233;179;821572;-66
2023/08/29 03:21:40;;;;;;;4.83;3.23;;;;;;;;;;773758;180;919215;-62
2023/08/29 03:24:08;;;;;;;5.00;3.30;;;;;;;;;;771481;179;918643;-70
2023/08/29 03:26:32;;;;;;;4.70;3.60;;;;;;;;;;778934;178;902983;-62
2023/08/29 03:28:58;;;;;;;6.13;3.60;;;;;;;;;;771973;181;919513;-60
2023/08/29 03:31:24;;;;;;;8.18;4.62;;;;;;;;;;772135;179;913976;-69
2023/08/29 03:33:49;;;;;;;6.40;4.83;;;;;;;;;;766936;180;913341;-69
2023/08/29 03:36:15;;;;;;;8.10;5.90;;;;;;;;;;779323;178;933163;-61
2023/08/29 03:38:41;;;;;;;9.03;5.50;;;;;;;;;;759009;184;919462;-67
2023/08/29 03:41:07;;;;;;;8.77;6.50;;;;;;;;;;758764;182;920023;-69
2023/08/29 03:43:33;;;;;;;11.37;7.30;;;;;;;;;;775223;181;918654;-69
2023/08/29 03:45:59;;;;;;;11.18;8.32;;;;;;;;;;760264;181;918346;-68
2023/08/29 03:48:25;;;;;;;8.83;7.33;;;;;;;;;;768051;179;921387;-67
2023/08/29 03:50:51;;;;;;;7.87;7.07;;;;;;;;;;771841;181;975084;-68
2023/08/29 03:53:17;;;;;;;8.80;7.07;;;;;;;;;;758775;180;919748;-68
2023/08/29 03:55:43;;;;;;;9.63;6.20;;;;;;;;;;776996;178;886881;-69
2023/08/29 03:58:09;;;;;;;6.90;5.47;;;;;;;;;;772910;178;919263;-67
2023/08/29 04:00:34;;;;;;;10.53;6.63;;;;;;;;;;776278;181;910046;-68
2023/08/29 04:03:00;;;;;;;8.60;7.10;;;;;;;;;;771735;177;919565;-61
2023/08/29 04:05:26;;;;;;;6.13;5.40;;;;;;;;;;776368;177;919642;-68
2023/08/29 04:07:52;;;;;;;8.80;5.90;;;;;;;;;;780698;177;918403;-67
2023/08/29 04:10:18;;;;;;;8.20;6.70;;;;;;;;;;775658;177;919278;-65
2023/08/29 04:12:44;;;;;;;7.47;6.00;;;;;;;;;;773981;180;918676;-66
2023/08/29 04:15:11;;;;;;;12.00;6.57;;;;;;;;;;780359;177;918663;-67
2023/08/29 04:17:35;;;;;;;7.80;5.93;;;;;;;;;;773183;180;816577;-62
2023/08/29 04:20:04;;;;;;;9.53;5.90;;;;;;;;;;771384;180;816823;-68
2023/08/29 04:22:27;;;;;;;7.63;6.57;;;;;;;;;;774209;180;918740;-67
2023/08/29 04:24:53;;;;;;;8.60;7.10;;;;;;;;;;784115;178;816243;-67
2023/08/29 04:27:19;;;;;;;9.60;7.53;;;;;;;;;;776962;179;919213;-66
2023/08/29 04:29:45;;;;;;;12.47;7.53;;;;;;;;;;775562;177;914178;-60
2023/08/29 04:32:11;;;;;;;11.47;9.20;;;;;;;;;;774378;180;919352;-65
2023/08/29 04:34:36;;;;;;;10.17;9.07;;;;;;;;;;755053;180;915353;-66
2023/08/29 04:37:04;;;;;;;10.10;9.07;;;;;;;;;;771356;177;919443;-66
2023/08/29 04:39:28;;;;;;;14.43;10.10;;;;;;;;;;775455;180;919158;-61
2023/08/29 04:41:54;;;;;;;12.10;10.10;;;;;;;;;;769544;180;923082;-61
2023/08/29 04:44:20;;;;;;;13.23;9.50;;;;;;;;;;773780;179;917416;-62
2023/08/29 04:46:46;;;;;;;9.60;8.57;;;;;;;;;;775460;179;824968;-66
2023/08/29 04:49:11;;;;;;;10.73;9.03;;;;;;;;;;771085;177;916235;-65
2023/08/29 04:51:37;;;;;;;9.90;8.47;;;;;;;;;;772717;180;917294;-65
2023/08/29 04:54:03;;;;;;;9.97;8.00;;;;;;;;;;773582;178;919052;-66
2023/08/29 04:56:29;;;;;;;9.73;8.70;;;;;;;;;;777586;178;918548;-66
2023/08/29 04:58:55;;;;;;;11.00;9.40;;;;;;;;;;771443;181;918430;-61
2023/08/29 05:01:21;;;;;;;10.43;9.37;;;;;;;;;;772764;178;919222;-59
2023/08/29 05:03:47;;;;;;;13.43;8.83;;;;;;;;;;778509;180;915558;-66
2023/08/29 05:06:12;;;;;;;11.20;9.23;;;;;;;;;;771190;178;914118;-66
2023/08/29 05:08:38;;;;;;;13.27;9.73;;;;;;;;;;775739;180;813469;-67
2023/08/29 05:11:04;;;;;;;13.80;10.70;;;;;;;;;;778511;180;808491;-61
2023/08/29 05:13:30;;;;;;;15.50;11.00;;;;;;;;;;773916;179;916609;-64
2023/08/29 05:15:56;;;;;;;14.98;10.60;;;;;;;;;;777187;178;921416;-65
2023/08/29 05:18:22;;;;;;;15.67;11.30;;;;;;;;;;776468;177;918092;-66
2023/08/29 05:20:47;;;;;;;17.47;12.57;;;;;;;;;;772404;180;919556;-66
2023/08/29 05:23:13;;;;;;;16.93;13.70;;;;;;;;;;775318;179;920553;-65
2023/08/29 05:25:40;;;;;;;18.03;15.27;;;;;;;;;;776080;178;899010;-66
2023/08/29 05:28:05;;;;;;;18.90;14.30;;;;;;;;;;777172;180;918499;-65
2023/08/29 05:30:31;;;;;;;17.97;14.57;;;;;;;;;;776603;180;821739;-61
2023/08/29 05:32:57;;;;;;;17.10;11.53;;;;;;;;;;773626;180;922994;-62
2023/08/29 05:35:23;;;;;;;19.10;13.47;;;;;;;;;;778787;180;923438;-61
2023/08/29 05:37:49;;;;;;;18.87;13.30;;;;;;;;;;774935;178;911757;-62
2023/08/29 05:40:14;;;;;;;14.87;11.83;;;;;;;;;;776270;180;917437;-60
2023/08/29 05:42:40;;;;;;;18.05;14.55;;;;;;;;;;777508;181;918720;-62
2023/08/29 05:45:06;;;;;;;15.17;11.63;;;;;;;;;;772172;180;911282;-66
2023/08/29 05:47:32;;;;;;;17.37;12.53;;;;;;;;;;776152;178;921901;-65
2023/08/29 05:49:58;;;;;;;15.80;12.40;;;;;;;;;;775272;180;924232;-61
2023/08/29 05:52:24;;;;;;;19.43;12.90;;;;;;;;;;770867;180;919519;-65
2023/08/29 05:54:50;;;;;;;19.03;13.37;;;;;;;;;;765151;180;919612;-65
2023/08/29 05:57:16;;;;;;;17.40;13.87;;;;;;;;;;773285;177;919255;-63
2023/08/29 05:59:42;;;;;;;20.30;14.97;;;;;;;;;;774399;181;919319;-66
2023/08/29 06:02:07;;;;;;;19.90;15.07;;;;;;;;;;772028;181;921486;-67
2023/08/29 06:04:33;;;;;;;19.83;14.40;;;;;;;;;;773588;180;1020669;-66
2023/08/29 06:06:59;;;;;;;21.33;14.80;;;;;;;;;;774028;178;829353;-59
2023/08/29 06:09:26;;;;;;;23.07;15.13;;;;;;;;;;775117;180;918247;-65
2023/08/29 06:11:51;;;;;;;23.53;14.47;;;;;;;;;;764493;180;919166;-66
2023/08/29 06:14:17;;;;;;;22.50;17.23;;;;;;;;;;776815;181;820750;-61
2023/08/29 06:16:42;;;;;;;25.40;17.80;;;;;;;;;;774806;180;622619;-63
2023/08/29 06:19:08;;;;;;;21.70;17.20;;;;;;;;;;779012;178;635953;-61
2023/08/29 06:21:34;;;;;;;27.07;18.00;;;;;;;;;;773627;179;621031;-64
2023/08/29 06:24:00;;;;;;;18.67;14.67;;;;;;;;;;782229;178;620718;-62
2023/08/29 06:26:26;;;;;;;23.67;15.10;;;;;;;;;;778636;178;914605;-62
2023/08/29 06:28:52;;;;;;;20.57;14.40;;;;;;;;;;772726;180;914375;-65
2023/08/29 06:31:17;;;;;;;23.70;15.30;;;;;;;;;;782853;178;634057;-65
2023/08/29 06:33:43;;;;;;;18.03;14.33;;;;;;;;;;774827;178;1021797;-65
2023/08/29 06:36:09;;;;;;;15.70;12.60;;;;;;;;;;781011;180;626350;-63
2023/08/29 06:38:35;;;;;;;16.53;12.80;;;;;;;;;;782980;180;620092;-63
2023/08/29 06:41:02;;;;;;;18.00;12.30;;;;;;;;;;775876;179;629184;-62
2023/08/29 06:43:27;;;;;;;15.87;12.33;;;;;;;;;;775216;179;920979;-65
2023/08/29 06:45:53;;;;;;;14.70;11.50;;;;;;;;;;774580;179;919062;-65
2023/08/29 06:48:18;;;;;;;16.17;13.30;;;;;;;;;;768059;181;918959;-65
2023/08/29 06:50:44;;;;;;;16.70;11.90;;;;;;;;;;768398;181;918299;-65
2023/08/29 06:53:10;;;;;;;16.50;12.48;;;;;;;;;;776934;180;818186;-64
2023/08/29 06:55:36;;;;;;;21.10;13.23;;;;;;;;;;779736;180;818329;-64
2023/08/29 06:58:04;;;;;;;15.47;13.20;;;;;;;;;;774261;181;918576;-65
2023/08/29 07:00:28;;;;;;;16.57;12.63;;;;;;;;;;774018;181;930959;-60
2023/08/29 07:02:54;;;;;;;15.27;11.57;;;;;;;;;;781237;178;915174;-65
2023/08/29 07:05:19;;;;;;;15.90;12.03;;;;;;;;;;761878;182;914752;-61
2023/08/29 07:07:45;;;;;;;15.13;11.03;;;;;;;;;;772837;178;920173;-62
2023/08/29 07:10:11;;;;;;;12.57;10.57;;;;;;;;;;776600;180;915693;-65
2023/08/29 07:12:37;;;;;;;12.43;9.87;;;;;;;;;;773178;180;921422;-65
2023/08/29 07:15:03;;;;;;;14.10;9.57;;;;;;;;;;774057;180;918607;-63
2023/08/29 07:17:29;;;;;;;12.70;8.97;;;;;;;;;;772708;180;919437;-63
2023/08/29 07:19:55;;;;;;;9.67;8.40;;;;;;;;;;767724;177;919279;-65
2023/08/29 07:22:21;;;;;;;11.37;7.30;;;;;;;;;;772686;180;917766;-65
2023/08/29 07:24:46;;;;;;;10.87;8.20;;;;;;;;;;771554;177;919173;-62
2023/08/29 07:27:12;;;;;;;9.00;7.50;;;;;;;;;;768313;181;919820;-65
2023/08/29 07:29:38;;;;;;;9.73;7.80;;;;;;;;;;773330;180;918227;-61
2023/08/29 07:32:04;;;;;;;10.33;7.50;;;;;;;;;;774264;180;919097;-61
2023/08/29 07:34:30;;;;;;;11.57;9.07;;;;;;;;;;774331;178;910663;-62
2023/08/29 07:36:56;;;;;;;13.57;8.57;;;;;;;;;;771064;180;888044;-64
2023/08/29 07:39:22;;;;;;;11.47;8.50;;;;;;;;;;775301;179;919703;-61
2023/08/29 07:41:48;;;;;;;11.47;9.63;;;;;;;;;;771799;178;917683;-59
2023/08/29 07:44:13;;;;;;;11.27;9.30;;;;;;;;;;771530;181;919496;-63
2023/08/29 07:46:39;;;;;;;12.03;8.80;;;;;;;;;;772006;180;919188;-61
2023/08/29 07:49:13;;;;;;;11.13;9.10;;;;;;;;;;776137;179;920153;-61
2023/08/29 07:51:31;;;;;;;10.00;9.00;;;;;;;;;;779443;180;919811;-63
2023/08/29 07:53:58;;;;;;;11.00;7.97;;;;;;;;;;776142;177;922509;-63
2023/08/29 07:56:24;;;;;;;8.87;7.37;;;;;;;;;;773644;180;924660;-64
2023/08/29 07:58:50;;;;;;;10.07;7.50;;;;;;;;;;777884;180;918847;-62
2023/08/29 08:01:17;;;;;;;8.67;7.13;;;;;;;;;;772077;180;918152;-64
2023/08/29 08:03:41;;;;;;;7.93;6.63;;;;;;;;;;773191;180;914564;-65
2023/08/29 08:06:08;;;;;;;13.20;10.90;;;;;;;;;;780015;178;919200;-62
2023/08/29 08:08:34;;;;;;;9.53;7.30;;;;;;;;;;769367;180;917877;-65
2023/08/29 08:10:59;;;;;;;9.77;7.60;;;;;;;;;;768540;178;918797;-61
2023/08/29 08:13:28;;;;;;;12.70;8.73;;;;;;;;;;775938;180;921435;-63
2023/08/29 08:15:51;;;;;;;11.13;9.17;;;;;;;;;;779113;180;853597;-59
2023/08/29 08:18:17;;;;;;;9.90;8.90;;;;;;;;;;773580;180;917934;-61
2023/08/29 08:20:43;;;;;;;11.20;9.20;;;;;;;;;;771790;180;935618;-60
2023/08/29 08:23:09;;;;;;;9.50;8.50;;;;;;;;;;779081;180;806472;-60
2023/08/29 08:25:35;;;;;;;10.00;8.70;;;;;;;;;;774624;181;818727;-63
2023/08/29 08:28:00;;;;;;;9.83;8.50;;;;;;;;;;769355;180;1021254;-63
2023/08/29 08:30:27;;;;;;;14.57;7.50;;;;;;;;;;778925;180;918597;-63
2023/08/29 08:32:53;;;;;;;11.27;8.53;;;;;;;;;;771820;179;916466;-59
2023/08/29 08:35:18;;;;;;;9.07;7.70;;;;;;;;;;772659;180;915222;-61
2023/08/29 08:37:44;;;;;;;8.37;7.43;;;;;;;;;;771189;180;918900;-62
2023/08/29 08:40:11;;;;;;;10.47;8.23;;;;;;;;;;777950;180;917827;-60
2023/08/29 08:42:37;;;;;;;9.03;7.03;;;;;;;;;;773576;180;920127;-59
2023/08/29 08:45:04;;;;;;;10.80;8.73;;;;;;;;;;763183;180;920494;-64
2023/08/29 08:47:28;;;;;;;12.80;10.30;;;;;;;;;;779224;181;918160;-58
2023/08/29 08:49:54;;;;;;;10.73;8.33;;;;;;;;;;775875;178;917064;-60
2023/08/29 08:52:20;;;;;;;10.83;8.17;;;;;;;;;;776061;180;918386;-59
2023/08/29 08:54:46;;;;;;;12.77;10.10;;;;;;;;;;778453;180;918676;-60
2023/08/29 08:57:12;;;;;;;13.03;9.27;;;;;;;;;;773711;180;914671;-63
2023/08/29 08:59:38;;;;;;;13.70;9.87;;;;;;;;;;773825;180;917912;-63
2023/08/29 09:02:04;;;;;;;11.97;9.50;;;;;;;;;;773580;177;914017;-63
2023/08/29 09:04:30;;;;;;;11.57;9.97;;;;;;;;;;771775;181;915419;-59
2023/08/29 09:06:56;;;;;;;13.03;9.47;;;;;;;;;;774754;178;933499;-64
2023/08/29 09:09:23;;;;;;;10.70;9.43;;;;;;;;;;771961;179;919818;-60
2023/08/29 09:11:50;;;;;;;14.23;9.33;;;;;;;;;;780554;177;920266;-59
2023/08/29 09:14:16;;;;;;;14.93;12.40;;;;;;;;;;775443;180;918921;-59
2023/08/29 09:16:42;;;;;;;17.33;10.40;;;;;;;;;;775148;180;920140;-63
2023/08/29 09:19:08;;;;;;;14.73;11.33;;;;;;;;;;779765;178;918729;-64
2023/08/29 09:21:35;;;;;;;17.00;12.97;;;;;;;;;;772322;180;921013;-64
2023/08/29 09:23:59;;;;;;;19.17;15.10;;;;;;;;;;772544;180;923083;-63
2023/08/29 09:26:25;;;;;;;19.87;14.87;;;;;;;;;;772959;178;900285;-63
2023/08/29 09:28:51;;;;;;;15.30;12.03;;;;;;;;;;772659;182;919319;-60
2023/08/29 09:31:17;;;;;;;17.97;14.03;;;;;;;;;;770226;181;919912;-59
2023/08/29 09:33:43;;;;;;;19.55;15.35;;;;;;;;;;772578;180;920968;-64
2023/08/29 09:36:09;;;;;;;17.60;13.63;;;;;;;;;;773354;180;870913;-62
2023/08/29 09:38:35;;;;;;;16.33;13.13;;;;;;;;;;770182;181;936706;-62
2023/08/29 09:41:01;;;;;;;21.63;15.43;;;;;;;;;;769854;177;919653;-62
2023/08/29 09:43:27;;;;;;;17.67;14.90;;;;;;;;;;779322;180;904266;-59
2023/08/29 09:45:53;;;;;;;17.90;13.57;;;;;;;;;;764932;179;922812;-59
2023/08/29 09:48:18;;;;;;;17.70;14.27;;;;;;;;;;770873;181;919100;-58
2023/08/29 09:50:45;;;;;;;21.50;14.23;;;;;;;;;;768729;181;919777;-60
2023/08/29 09:53:12;;;;;;;19.63;14.93;;;;;;;;;;773553;181;918277;-60
2023/08/29 09:55:37;;;;;;;17.07;13.87;;;;;;;;;;769633;181;918931;-64
2023/08/29 09:58:04;;;;;;;19.87;14.77;;;;;;;;;;773101;178;912926;-61
2023/08/29 10:00:29;;;;;;;23.40;15.83;;;;;;;;;;773848;177;915029;-62
2023/08/29 10:02:55;;;;;;;18.03;14.23;;;;;;;;;;764089;181;927562;-62
2023/08/29 10:05:21;;;;;;;24.57;16.90;;;;;;;;;;769510;181;914377;-63
2023/08/29 10:07:47;;;;;;;23.80;17.93;;;;;;;;;;779904;180;816016;-66
2023/08/29 10:10:13;;;;;;;23.10;17.67;;;;;;;;;;771173;179;883773;-63
2023/08/29 10:12:39;;;;;;;23.57;18.60;;;;;;;;;;776178;181;817127;-66
2023/08/29 10:15:06;;;;;;;25.00;17.80;;;;;;;;;;772832;180;875665;-61
2023/08/29 10:17:32;;;;;;;26.90;18.40;;;;;;;;;;773864;178;919489;-67
2023/08/29 10:19:59;;;;;;;24.50;18.63;;;;;;;;;;774325;180;927705;-67
2023/08/29 10:22:24;;;;;;;22.00;16.43;;;;;;;;;;775254;180;918666;-70
2023/08/29 10:24:50;;;;;;;23.60;17.07;;;;;;;;;;774563;181;918465;-59
2023/08/29 10:27:16;;;;;;;21.63;17.33;;;;;;;;;;771201;180;920639;-66
2023/08/29 10:29:41;;;;;;;28.80;19.83;;;;;;;;;;775733;178;819300;-66
2023/08/29 10:32:07;;;;;;;24.97;20.43;;;;;;;;;;780528;180;820352;-65
2023/08/29 10:34:33;;;;;;;27.87;19.03;;;;;;;;;;770713;181;877683;-67
2023/08/29 10:37:00;;;;;;;35.77;26.23;;;;;;;;;;776094;181;918934;-65
2023/08/29 10:39:25;;;;;;;39.10;27.03;;;;;;;;;;765699;181;1080087;-65
2023/08/29 10:41:51;;;;;;;61.73;40.90;;;;;;;;;;770623;181;923911;-66
2023/08/29 10:44:22;;;;;;;30.63;22.27;;;;;;;;;;774194;179;917125;-60
2023/08/29 10:46:51;;;;;;;49.77;30.80;;;;;;;;;;768940;180;921244;-61
2023/08/29 10:49:17;;;;;;;175.80;97.17;;;;;;;;;;778089;179;919012;-60
2023/08/29 10:51:43;;;;;;;38.43;24.23;;;;;;;;;;771291;180;922700;-64
2023/08/29 10:54:09;;;;;;;48.40;31.83;;;;;;;;;;774448;180;924657;-65
2023/08/29 10:56:38;;;;;;;38.37;26.40;;;;;;;;;;777431;181;814163;-64
2023/08/29 10:59:04;;;;;;;30.73;22.60;;;;;;;;;;775074;181;942133;-61
2023/08/29 11:01:30;;;;;;;49.13;30.93;;;;;;;;;;769600;181;919119;-60
2023/08/29 11:03:56;;;;;;;50.13;33.47;;;;;;;;;;773378;181;908328;-64
2023/08/29 11:06:22;;;;;;;28.10;18.83;;;;;;;;;;779673;180;919681;-65
2023/08/29 11:08:48;;;;;;;18.80;14.30;;;;;;;;;;775841;177;815845;-64
2023/08/29 11:11:16;;;;;;;20.20;16.20;;;;;;;;;;772389;180;919349;-60
2023/08/29 11:13:47;;;;;;;16.40;14.03;;;;;;;;;;780256;179;918872;-60
2023/08/29 11:16:13;;;;;;;20.40;16.50;;;;;;;;;;778801;178;810560;-60
2023/08/29 11:18:39;;;;;;;17.07;13.17;;;;;;;;;;770071;181;918569;-65
2023/08/29 11:21:05;;;;;;;16.03;11.60;;;;;;;;;;770978;178;921364;-60
2023/08/29 11:23:31;;;;;;;16.77;13.43;;;;;;;;;;780036;180;918763;-65
2023/08/29 11:25:57;;;;;;;16.90;13.47;;;;;;;;;;776075;177;916279;-64
2023/08/29 11:28:22;;;;;;;19.40;15.37;;;;;;;;;;771649;179;919630;-64
2023/08/29 11:30:48;;;;;;;15.53;11.77;;;;;;;;;;765236;181;816915;-65
2023/08/29 11:33:14;;;;;;;14.67;12.50;;;;;;;;;;773154;177;918089;-66
2023/08/29 11:35:40;;;;;;;14.40;9.97;;;;;;;;;;774330;177;915598;-66
2023/08/29 11:38:06;;;;;;;10.27;7.90;;;;;;;;;;772919;181;918739;-61
2023/08/29 11:40:32;;;;;;;14.83;8.93;;;;;;;;;;772070;180;919056;-67
2023/08/29 11:42:58;;;;;;;14.77;9.10;;;;;;;;;;774621;180;922516;-67
2023/08/29 11:45:25;;;;;;;11.83;8.53;;;;;;;;;;773692;180;917489;-70
2023/08/29 11:47:49;;;;;;;10.13;8.40;;;;;;;;;;776524;180;917472;-61
2023/08/29 11:50:16;;;;;;;9.40;7.73;;;;;;;;;;766822;178;923873;-61
2023/08/29 11:52:41;;;;;;;15.10;8.20;;;;;;;;;;768114;180;875436;-61
2023/08/29 11:55:07;;;;;;;12.40;8.70;;;;;;;;;;779161;180;888906;-61
2023/08/29 11:57:33;;;;;;;15.50;8.60;;;;;;;;;;771415;181;817144;-62
2023/08/29 11:59:59;;;;;;;12.50;8.00;;;;;;;;;;768272;176;818476;-60
2023/08/29 12:02:26;;;;;;;11.90;8.50;;;;;;;;;;765287;182;818744;-66
2023/08/29 12:04:53;;;;;;;10.57;8.83;;;;;;;;;;769945;180;917209;-66
2023/08/29 12:07:19;;;;;;;12.57;9.10;;;;;;;;;;772658;180;919299;-67
2023/08/29 12:09:45;;;;;;;11.63;8.30;;;;;;;;;;774037;180;918397;-61
2023/08/29 12:12:16;;;;;;;10.40;7.90;;;;;;;;;;775132;178;856272;-61
2023/08/29 12:14:49;;;;;;;15.27;9.80;;;;;;;;;;774212;178;919371;-68
2023/08/29 12:17:14;;;;;;;10.67;9.10;;;;;;;;;;774483;180;919486;-67
2023/08/29 12:19:40;;;;;;;11.87;8.87;;;;;;;;;;772626;177;919403;-67
2023/08/29 12:22:06;;;;;;;12.43;8.07;;;;;;;;;;776592;178;918638;-66
2023/08/29 12:24:32;;;;;;;14.43;8.67;;;;;;;;;;774864;179;917074;-67
2023/08/29 12:26:57;;;;;;;15.03;8.87;;;;;;;;;;776774;177;918531;-68
2023/08/29 12:29:23;;;;;;;11.10;9.43;;;;;;;;;;780204;177;919152;-67
2023/08/29 12:31:50;;;;;;;15.60;9.90;;;;;;;;;;769462;180;922257;-66
2023/08/29 12:34:15;;;;;;;12.40;9.47;;;;;;;;;;771458;179;917810;-62
2023/08/29 12:36:41;;;;;;;10.73;8.50;;;;;;;;;;780447;180;880020;-67
2023/08/29 12:39:08;;;;;;;12.40;9.10;;;;;;;;;;773864;177;920271;-67
2023/08/29 12:41:33;;;;;;;14.60;11.37;;;;;;;;;;770756;181;929482;-66
2023/08/29 12:43:59;;;;;;;15.37;11.10;;;;;;;;;;772307;178;816895;-66
2023/08/29 12:46:24;;;;;;;15.90;11.47;;;;;;;;;;779606;180;918437;-62
2023/08/29 12:48:50;;;;;;;15.35;11.60;;;;;;;;;;771702;178;816576;-61
2023/08/29 12:51:16;;;;;;;16.90;11.80;;;;;;;;;;773023;180;918161;-60
2023/08/29 12:53:44;;;;;;;16.00;11.47;;;;;;;;;;779297;181;820511;-65
2023/08/29 12:56:08;;;;;;;14.03;10.67;;;;;;;;;;775639;179;919197;-61
2023/08/29 12:58:34;;;;;;;19.80;11.23;;;;;;;;;;772084;178;916490;-66
2023/08/29 13:00:59;;;;;;;14.70;11.37;;;;;;;;;;779200;179;820507;-60
2023/08/29 13:03:25;;;;;;;15.60;10.30;;;;;;;;;;772865;178;918344;-60
2023/08/29 13:05:51;;;;;;;16.17;11.87;;;;;;;;;;772948;180;918496;-60
2023/08/29 13:08:19;;;;;;;18.42;12.77;;;;;;;;;;777185;180;893114;-66
2023/08/29 13:10:44;;;;;;;14.67;10.40;;;;;;;;;;772504;181;918366;-66
2023/08/29 13:13:09;;;;;;;15.17;10.90;;;;;;;;;;770784;178;916118;-61
2023/08/29 13:15:36;;;;;;;15.13;11.20;;;;;;;;;;775233;180;934856;-58
2023/08/29 13:18:02;;;;;;;16.33;12.43;;;;;;;;;;777641;179;892511;-61
2023/08/29 13:20:28;;;;;;;17.57;11.67;;;;;;;;;;772362;179;917208;-64
2023/08/29 13:22:53;;;;;;;16.47;10.77;;;;;;;;;;771767;179;917176;-65
2023/08/29 13:25:19;;;;;;;15.52;11.38;;;;;;;;;;764033;181;919004;-65
2023/08/29 13:27:46;;;;;;;14.53;11.00;;;;;;;;;;772268;178;930265;-60
2023/08/29 13:30:11;;;;;;;14.35;10.73;;;;;;;;;;773984;178;919629;-64
2023/08/29 13:32:37;;;;;;;21.00;11.97;;;;;;;;;;775081;177;897944;-60
2023/08/29 13:35:04;;;;;;;17.63;12.00;;;;;;;;;;772335;180;921661;-65
2023/08/29 13:37:29;;;;;;;15.10;12.00;;;;;;;;;;775628;180;919270;-62
2023/08/29 13:39:56;;;;;;;16.60;12.20;;;;;;;;;;763406;183;920130;-65
2023/08/29 13:42:21;;;;;;;14.87;10.60;;;;;;;;;;774035;181;817399;-60
2023/08/29 13:44:47;;;;;;;18.30;11.90;;;;;;;;;;774933;179;919399;-65
2023/08/29 13:47:12;;;;;;;17.65;10.95;;;;;;;;;;772603;181;904167;-61
2023/08/29 13:49:38;;;;;;;13.37;10.43;;;;;;;;;;779872;180;917766;-61
2023/08/29 13:52:07;;;;;;;15.55;10.50;;;;;;;;;;773003;177;918310;-62
2023/08/29 13:54:30;;;;;;;16.23;10.93;;;;;;;;;;771657;179;886832;-61
2023/08/29 13:56:56;;;;;;;15.93;10.80;;;;;;;;;;778749;180;920432;-61
2023/08/29 13:59:22;;;;;;;16.63;10.97;;;;;;;;;;770548;181;918991;-65
2023/08/29 14:01:48;;;;;;;17.33;11.50;;;;;;;;;;771362;181;937166;-60
2023/08/29 14:04:14;;;;;;;14.70;9.77;;;;;;;;;;772286;180;913964;-62
2023/08/29 14:06:39;;;;;;;17.93;11.70;;;;;;;;;;767699;182;913434;-60
2023/08/29 14:09:05;;;;;;;14.10;9.50;;;;;;;;;;771567;179;917815;-66